createdAt,value
2018-11-28T00:00:30.559Z,47.30
2018-11-28T00:01:02.162Z,47.38
2018-11-28T00:01:33.762Z,47.45
2018-11-28T00:02:05.363Z,47.35
2018-11-28T00:02:36.958Z,47.86
2018-11-28T00:03:08.554Z,47.39
2018-11-28T00:03:40.140Z,47.70
2018-11-28T00:04:11.734Z,47.04
2018-11-28T00:04:43.348Z,47.62
2018-11-28T00:05:14.983Z,47.53
2018-11-28T00:05:46.581Z,47.62
2018-11-28T00:06:18.181Z,47.69
2018-11-28T00:06:49.778Z,47.92
2018-11-28T00:07:21.384Z,48.01
2018-11-28T00:07:52.992Z,48.26
2018-11-28T00:08:24.607Z,48.32
2018-11-28T00:08:56.207Z,48.38
2018-11-28T00:09:27.816Z,48.31
2018-11-28T00:09:59.418Z,48.41
2018-11-28T00:10:31.019Z,48.46
2018-11-28T00:11:02.619Z,48.35
2018-11-28T00:11:34.228Z,48.55
2018-11-28T00:12:05.837Z,48.38
2018-11-28T00:12:37.435Z,48.38
2018-11-28T00:13:09.040Z,48.43
2018-11-28T00:13:40.629Z,48.51
2018-11-28T00:14:12.225Z,48.47
2018-11-28T00:14:43.834Z,48.50
2018-11-28T00:15:15.492Z,48.58
2018-11-28T00:15:47.082Z,48.69
2018-11-28T00:16:18.678Z,48.73
2018-11-28T00:16:50.284Z,48.66
2018-11-28T00:17:21.886Z,48.72
2018-11-28T00:17:53.547Z,48.77
2018-11-28T00:18:25.144Z,48.72
2018-11-28T00:18:56.742Z,48.73
2018-11-28T00:19:28.348Z,48.86
2018-11-28T00:19:59.934Z,49.02
2018-11-28T00:20:31.543Z,49.00
2018-11-28T00:21:03.124Z,48.89
2018-11-28T00:21:34.744Z,48.93
2018-11-28T00:22:06.325Z,49.15
2018-11-28T00:22:37.928Z,49.03
2018-11-28T00:23:09.521Z,49.03
2018-11-28T00:23:41.132Z,49.02
2018-11-28T00:24:12.726Z,49.03
2018-11-28T00:24:44.332Z,48.92
2018-11-28T00:25:15.961Z,48.88
2018-11-28T00:25:47.577Z,48.95
2018-11-28T00:26:19.174Z,48.92
2018-11-28T00:26:50.768Z,49.14
2018-11-28T00:27:22.362Z,49.26
2018-11-28T00:27:53.976Z,49.37
2018-11-28T00:28:25.560Z,49.44
2018-11-28T00:28:57.154Z,49.50
2018-11-28T00:29:28.746Z,49.47
2018-11-28T00:30:00.352Z,49.47
2018-11-28T00:30:31.973Z,49.56
2018-11-28T00:31:03.564Z,49.56
2018-11-28T00:31:35.157Z,49.65
2018-11-28T00:32:06.766Z,49.65
2018-11-28T00:32:38.380Z,49.72
2018-11-28T00:33:09.988Z,49.77
2018-11-28T00:33:41.586Z,49.77
2018-11-28T00:34:13.178Z,49.81
2018-11-28T00:34:44.778Z,49.85
2018-11-28T00:35:16.402Z,49.93
2018-11-28T00:35:48.020Z,50.00
2018-11-28T00:36:19.618Z,50.08
2018-11-28T00:36:51.214Z,50.05
2018-11-28T00:37:22.810Z,50.16
2018-11-28T00:37:54.397Z,50.10
2018-11-28T00:38:26.009Z,50.26
2018-11-28T00:38:57.620Z,50.30
2018-11-28T00:39:29.204Z,50.25
2018-11-28T00:40:00.798Z,50.27
2018-11-28T00:40:32.421Z,50.28
2018-11-28T00:41:04.014Z,50.35
2018-11-28T00:41:35.624Z,50.44
2018-11-28T00:42:07.224Z,50.35
2018-11-28T00:42:38.826Z,50.44
2018-11-28T00:43:10.413Z,50.48
2018-11-28T00:43:42.010Z,50.57
2018-11-28T00:44:13.628Z,50.57
2018-11-28T00:44:45.241Z,50.58
2018-11-28T00:45:16.856Z,50.68
2018-11-28T00:45:48.468Z,50.64
2018-11-28T00:46:20.080Z,50.68
2018-11-28T00:46:51.679Z,50.74
2018-11-28T00:47:23.292Z,50.83
2018-11-28T00:47:54.908Z,50.81
2018-11-28T00:48:26.511Z,50.87
2018-11-28T00:48:58.102Z,50.91
2018-11-28T00:49:29.702Z,50.91
2018-11-28T00:50:01.299Z,50.93
2018-11-28T00:50:32.918Z,50.93
2018-11-28T00:51:04.532Z,50.93
2018-11-28T00:51:36.148Z,50.91
2018-11-28T00:52:07.760Z,51.03
2018-11-28T00:52:39.372Z,50.99
2018-11-28T00:53:10.960Z,50.97
2018-11-28T00:53:42.702Z,51.11
2018-11-28T00:54:14.325Z,51.04
2018-11-28T00:54:45.985Z,51.13
2018-11-28T00:55:18.291Z,51.11
2018-11-28T00:55:49.900Z,50.99
2018-11-28T00:56:21.503Z,50.99
2018-11-28T00:56:53.105Z,50.97
2018-11-28T00:57:24.710Z,50.98
2018-11-28T00:57:56.324Z,51.08
2018-11-28T00:58:27.923Z,51.13
2018-11-28T00:58:59.539Z,51.11
2018-11-28T00:59:31.156Z,51.06
2018-11-28T01:00:02.755Z,51.08
2018-11-28T01:00:34.387Z,51.06
2018-11-28T01:01:05.981Z,51.13
2018-11-28T01:01:37.592Z,51.00
2018-11-28T01:02:09.195Z,51.13
2018-11-28T01:02:40.796Z,51.13
2018-11-28T01:03:12.395Z,51.13
2018-11-28T01:03:43.986Z,51.21
2018-11-28T01:04:15.596Z,51.21
2018-11-28T01:04:47.198Z,51.17
2018-11-28T01:05:18.784Z,51.18
2018-11-28T01:05:50.414Z,51.24
2018-11-28T01:06:22.024Z,51.23
2018-11-28T01:06:53.608Z,51.34
2018-11-28T01:07:25.193Z,51.57
2018-11-28T01:07:56.786Z,51.41
2018-11-28T01:08:28.397Z,51.65
2018-11-28T01:08:59.995Z,51.50
2018-11-28T01:09:31.591Z,51.62
2018-11-28T01:10:03.200Z,51.58
2018-11-28T01:10:34.784Z,51.59
2018-11-28T01:11:06.403Z,51.61
2018-11-28T01:11:38.012Z,51.49
2018-11-28T01:12:09.627Z,51.54
2018-11-28T01:12:41.229Z,51.56
2018-11-28T01:13:12.828Z,51.56
2018-11-28T01:13:44.412Z,51.71
2018-11-28T01:14:16.016Z,51.53
2018-11-28T01:14:47.600Z,51.45
2018-11-28T01:15:19.222Z,51.35
2018-11-28T01:15:50.822Z,50.96
2018-11-28T01:16:22.456Z,50.91
2018-11-28T01:16:54.054Z,50.82
2018-11-28T01:17:25.651Z,50.37
2018-11-28T01:17:57.256Z,50.30
2018-11-28T01:18:28.841Z,50.42
2018-11-28T01:19:00.446Z,50.37
2018-11-28T01:19:32.058Z,50.37
2018-11-28T01:20:03.658Z,50.36
2018-11-28T01:20:35.274Z,50.43
2018-11-28T01:21:06.896Z,50.44
2018-11-28T01:21:38.490Z,50.41
2018-11-28T01:22:10.104Z,50.48
2018-11-28T01:22:41.702Z,50.60
2018-11-28T01:23:13.313Z,50.57
2018-11-28T01:23:44.904Z,50.69
2018-11-28T01:24:16.508Z,50.70
2018-11-28T01:24:48.106Z,50.69
2018-11-28T01:25:19.714Z,50.77
2018-11-28T01:25:51.304Z,50.84
2018-11-28T01:26:22.909Z,50.78
2018-11-28T01:26:54.501Z,50.94
2018-11-28T01:27:26.108Z,50.92
2018-11-28T01:27:57.725Z,50.89
2018-11-28T01:28:29.338Z,50.96
2018-11-28T01:29:00.938Z,51.03
2018-11-28T01:29:32.525Z,50.99
2018-11-28T01:30:04.121Z,50.94
2018-11-28T01:30:35.707Z,51.03
2018-11-28T01:31:07.330Z,51.05
2018-11-28T01:31:38.943Z,51.05
2018-11-28T01:32:10.561Z,51.09
2018-11-28T01:32:42.167Z,51.14
2018-11-28T01:33:13.762Z,51.16
2018-11-28T01:33:45.371Z,51.14
2018-11-28T01:34:16.970Z,51.21
2018-11-28T01:34:48.575Z,51.14
2018-11-28T01:35:20.188Z,51.23
2018-11-28T01:35:51.782Z,51.22
2018-11-28T01:36:23.424Z,51.32
2018-11-28T01:36:55.022Z,51.33
2018-11-28T01:37:26.632Z,51.37
2018-11-28T01:37:58.243Z,51.40
2018-11-28T01:38:29.839Z,51.46
2018-11-28T01:39:01.438Z,51.45
2018-11-28T01:39:33.021Z,51.47
2018-11-28T01:40:04.618Z,51.47
2018-11-28T01:40:36.228Z,51.56
2018-11-28T01:41:07.855Z,51.55
2018-11-28T01:41:39.454Z,51.58
2018-11-28T01:42:11.060Z,51.56
2018-11-28T01:42:42.704Z,51.63
2018-11-28T01:43:14.321Z,51.54
2018-11-28T01:43:45.937Z,51.74
2018-11-28T01:44:17.548Z,51.76
2018-11-28T01:44:49.142Z,51.66
2018-11-28T01:45:20.752Z,51.61
2018-11-28T01:45:52.350Z,51.54
2018-11-28T01:46:23.988Z,51.55
2018-11-28T01:46:55.586Z,51.61
2018-11-28T01:47:27.174Z,51.53
2018-11-28T01:47:58.781Z,51.54
2018-11-28T01:48:30.374Z,51.54
2018-11-28T01:49:01.986Z,51.55
2018-11-28T01:49:33.576Z,51.52
2018-11-28T01:50:05.192Z,51.42
2018-11-28T01:50:36.791Z,51.47
2018-11-28T01:51:08.410Z,51.54
2018-11-28T01:51:40.034Z,51.45
2018-11-28T01:52:11.648Z,51.53
2018-11-28T01:52:43.253Z,51.59
2018-11-28T01:53:14.869Z,51.63
2018-11-28T01:53:46.456Z,51.56
2018-11-28T01:54:18.068Z,51.51
2018-11-28T01:54:49.669Z,51.50
2018-11-28T01:55:21.268Z,51.58
2018-11-28T01:55:52.868Z,51.58
2018-11-28T01:56:24.490Z,51.47
2018-11-28T01:56:56.095Z,51.48
2018-11-28T01:57:27.699Z,51.60
2018-11-28T01:57:59.303Z,51.49
2018-11-28T01:58:30.900Z,51.57
2018-11-28T01:59:02.549Z,51.52
2018-11-28T01:59:34.133Z,51.64
2018-11-28T02:00:05.784Z,51.53
2018-11-28T02:00:37.391Z,51.49
2018-11-28T02:01:09.007Z,51.50
2018-11-28T02:01:40.644Z,51.53
2018-11-28T02:02:12.232Z,51.64
2018-11-28T02:02:43.839Z,51.58
2018-11-28T02:03:15.438Z,51.51
2018-11-28T02:03:47.048Z,51.55
2018-11-28T02:04:18.652Z,51.56
2018-11-28T02:04:50.250Z,51.63
2018-11-28T02:05:21.856Z,51.63
2018-11-28T02:05:53.458Z,51.57
2018-11-28T02:06:25.078Z,51.56
2018-11-28T02:06:56.670Z,51.60
2018-11-28T02:07:28.266Z,51.55
2018-11-28T02:07:59.909Z,51.65
2018-11-28T02:08:31.507Z,51.72
2018-11-28T02:09:03.120Z,51.78
2018-11-28T02:09:34.732Z,51.88
2018-11-28T02:10:06.331Z,51.87
2018-11-28T02:10:37.940Z,51.92
2018-11-28T02:11:09.538Z,51.91
2018-11-28T02:11:41.166Z,52.00
2018-11-28T02:12:12.751Z,52.04
2018-11-28T02:12:44.364Z,51.93
2018-11-28T02:13:15.962Z,52.03
2018-11-28T02:13:47.557Z,52.00
2018-11-28T02:14:19.140Z,52.15
2018-11-28T02:14:50.730Z,52.09
2018-11-28T02:15:22.326Z,52.09
2018-11-28T02:15:53.934Z,52.11
2018-11-28T02:16:25.555Z,52.19
2018-11-28T02:16:57.147Z,52.12
2018-11-28T02:17:28.742Z,52.10
2018-11-28T02:18:00.352Z,52.10
2018-11-28T02:18:31.949Z,52.17
2018-11-28T02:19:03.542Z,52.14
2018-11-28T02:19:35.152Z,52.18
2018-11-28T02:20:06.764Z,52.22
2018-11-28T02:20:38.386Z,52.19
2018-11-28T02:21:09.987Z,52.22
2018-11-28T02:21:41.600Z,52.23
2018-11-28T02:22:13.198Z,52.16
2018-11-28T02:22:44.810Z,52.14
2018-11-28T02:23:16.431Z,52.22
2018-11-28T02:23:48.046Z,52.20
2018-11-28T02:24:19.636Z,52.23
2018-11-28T02:24:51.242Z,52.25
2018-11-28T02:25:22.853Z,52.22
2018-11-28T02:25:54.454Z,52.37
2018-11-28T02:26:26.091Z,52.47
2018-11-28T02:26:57.708Z,52.44
2018-11-28T02:27:29.323Z,52.53
2018-11-28T02:28:00.935Z,52.44
2018-11-28T02:28:32.544Z,52.50
2018-11-28T02:29:04.212Z,52.45
2018-11-28T02:29:35.802Z,52.54
2018-11-28T02:30:07.408Z,52.60
2018-11-28T02:30:39.020Z,52.80
2018-11-28T02:31:10.623Z,52.82
2018-11-28T02:31:42.260Z,52.94
2018-11-28T02:32:13.854Z,52.83
2018-11-28T02:32:45.460Z,52.96
2018-11-28T02:33:17.065Z,52.96
2018-11-28T02:33:48.651Z,53.00
2018-11-28T02:34:20.246Z,53.04
2018-11-28T02:34:51.846Z,53.13
2018-11-28T02:35:23.438Z,53.18
2018-11-28T02:35:55.034Z,53.11
2018-11-28T02:36:26.668Z,53.17
2018-11-28T02:36:58.263Z,53.06
2018-11-28T02:37:29.858Z,53.26
2018-11-28T02:38:01.455Z,53.32
2018-11-28T02:38:33.051Z,53.29
2018-11-28T02:39:04.647Z,53.27
2018-11-28T02:39:36.232Z,53.46
2018-11-28T02:40:07.830Z,53.37
2018-11-28T02:40:39.422Z,53.44
2018-11-28T02:41:11.027Z,53.45
2018-11-28T02:41:42.640Z,53.59
2018-11-28T02:42:14.235Z,53.36
2018-11-28T02:42:45.850Z,53.44
2018-11-28T02:43:17.447Z,53.37
2018-11-28T02:43:49.051Z,53.56
2018-11-28T02:44:20.657Z,53.48
2018-11-28T02:44:52.250Z,53.62
2018-11-28T02:45:23.839Z,53.75
2018-11-28T02:45:55.448Z,53.81
2018-11-28T02:46:27.080Z,53.72
2018-11-28T02:46:58.692Z,53.64
2018-11-28T02:47:30.316Z,53.72
2018-11-28T02:48:01.919Z,53.83
2018-11-28T02:48:33.532Z,53.77
2018-11-28T02:49:05.131Z,53.70
2018-11-28T02:49:36.734Z,53.73
2018-11-28T02:50:08.335Z,53.73
2018-11-28T02:50:39.930Z,53.77
2018-11-28T02:51:11.526Z,54.05
2018-11-28T02:51:43.136Z,53.81
2018-11-28T02:52:14.735Z,53.82
2018-11-28T02:52:46.339Z,53.97
2018-11-28T02:53:17.935Z,53.85
2018-11-28T02:53:49.530Z,53.96
2018-11-28T02:54:21.132Z,53.96
2018-11-28T02:54:52.746Z,53.89
2018-11-28T02:55:24.352Z,54.17
2018-11-28T02:55:55.964Z,53.99
2018-11-28T02:56:27.617Z,54.23
2018-11-28T02:56:59.204Z,54.17
2018-11-28T02:57:30.784Z,54.51
2018-11-28T02:58:02.385Z,54.24
2018-11-28T02:58:33.981Z,54.36
2018-11-28T02:59:05.601Z,54.45
2018-11-28T02:59:37.220Z,54.34
2018-11-28T03:00:08.818Z,54.33
2018-11-28T03:00:40.418Z,54.35
2018-11-28T03:01:12.015Z,54.40
2018-11-28T03:01:43.636Z,54.51
2018-11-28T03:02:15.234Z,54.51
2018-11-28T03:02:46.848Z,54.50
2018-11-28T03:03:18.446Z,54.60
2018-11-28T03:03:50.052Z,54.50
2018-11-28T03:04:21.646Z,54.69
2018-11-28T03:04:53.239Z,54.67
2018-11-28T03:05:24.855Z,54.71
2018-11-28T03:05:56.436Z,54.45
2018-11-28T03:06:28.066Z,54.64
2018-11-28T03:06:59.675Z,54.40
2018-11-28T03:07:31.261Z,54.54
2018-11-28T03:08:02.863Z,54.58
2018-11-28T03:08:34.477Z,54.56
2018-11-28T03:09:06.082Z,54.56
2018-11-28T03:09:37.687Z,54.62
2018-11-28T03:10:09.286Z,55.01
2018-11-28T03:10:40.869Z,54.93
2018-11-28T03:11:12.452Z,54.69
2018-11-28T03:11:44.088Z,54.70
2018-11-28T03:12:15.687Z,54.49
2018-11-28T03:12:47.295Z,54.68
2018-11-28T03:13:18.898Z,54.59
2018-11-28T03:13:50.495Z,54.53
2018-11-28T03:14:22.085Z,54.49
2018-11-28T03:14:53.686Z,54.45
2018-11-28T03:15:25.296Z,54.50
2018-11-28T03:15:56.909Z,54.60
2018-11-28T03:16:28.526Z,54.54
2018-11-28T03:17:00.152Z,54.59
2018-11-28T03:17:31.768Z,54.75
2018-11-28T03:18:03.362Z,54.80
2018-11-28T03:18:34.973Z,54.83
2018-11-28T03:19:06.586Z,54.67
2018-11-28T03:19:38.196Z,54.71
2018-11-28T03:20:09.785Z,54.99
2018-11-28T03:20:41.392Z,54.87
2018-11-28T03:21:13.008Z,54.95
2018-11-28T03:21:44.640Z,54.59
2018-11-28T03:22:16.232Z,54.89
2018-11-28T03:22:47.829Z,54.80
2018-11-28T03:23:19.485Z,54.77
2018-11-28T03:23:51.077Z,54.79
2018-11-28T03:24:22.670Z,54.96
2018-11-28T03:24:54.251Z,54.79
2018-11-28T03:25:25.860Z,54.67
2018-11-28T03:25:57.462Z,54.76
2018-11-28T03:26:29.059Z,54.79
2018-11-28T03:27:00.683Z,54.74
2018-11-28T03:27:32.309Z,54.90
2018-11-28T03:28:03.914Z,54.75
2018-11-28T03:28:35.504Z,54.60
2018-11-28T03:29:07.102Z,54.65
2018-11-28T03:29:38.710Z,54.68
2018-11-28T03:30:10.334Z,54.72
2018-11-28T03:30:41.936Z,54.72
2018-11-28T03:31:13.541Z,54.81
2018-11-28T03:31:45.139Z,54.67
2018-11-28T03:32:16.763Z,54.69
2018-11-28T03:32:48.420Z,54.63
2018-11-28T03:33:19.992Z,54.60
2018-11-28T03:33:51.620Z,54.59
2018-11-28T03:34:23.233Z,54.68
2018-11-28T03:34:54.832Z,54.53
2018-11-28T03:35:26.453Z,54.44
2018-11-28T03:35:58.081Z,54.52
2018-11-28T03:36:29.708Z,54.71
2018-11-28T03:37:01.334Z,54.62
2018-11-28T03:37:32.933Z,54.75
2018-11-28T03:38:04.530Z,54.67
2018-11-28T03:38:36.130Z,54.59
2018-11-28T03:39:07.723Z,54.73
2018-11-28T03:39:39.322Z,54.73
2018-11-28T03:40:10.908Z,54.60
2018-11-28T03:40:42.516Z,54.68
2018-11-28T03:41:14.130Z,54.67
2018-11-28T03:41:45.721Z,54.54
2018-11-28T03:42:17.334Z,54.56
2018-11-28T03:42:48.925Z,54.63
2018-11-28T03:43:20.529Z,54.56
2018-11-28T03:43:52.139Z,54.43
2018-11-28T03:44:23.737Z,54.42
2018-11-28T03:44:55.344Z,54.54
2018-11-28T03:45:26.940Z,54.46
2018-11-28T03:45:58.525Z,54.39
2018-11-28T03:46:30.126Z,54.46
2018-11-28T03:47:01.750Z,54.38
2018-11-28T03:47:33.346Z,54.38
2018-11-28T03:48:04.943Z,54.36
2018-11-28T03:48:36.556Z,54.28
2018-11-28T03:49:08.151Z,54.29
2018-11-28T03:49:39.752Z,54.32
2018-11-28T03:50:11.358Z,54.37
2018-11-28T03:50:42.957Z,54.30
2018-11-28T03:51:14.555Z,54.39
2018-11-28T03:51:46.132Z,54.31
2018-11-28T03:52:17.803Z,54.27
2018-11-28T03:52:49.389Z,54.29
2018-11-28T03:53:20.995Z,54.29
2018-11-28T03:53:52.608Z,54.28
2018-11-28T03:54:24.211Z,54.22
2018-11-28T03:54:55.805Z,54.16
2018-11-28T03:55:27.429Z,54.22
2018-11-28T03:55:59.031Z,54.33
2018-11-28T03:56:30.649Z,54.38
2018-11-28T03:57:02.369Z,54.27
2018-11-28T03:57:34.004Z,54.28
2018-11-28T03:58:05.635Z,54.29
2018-11-28T03:58:37.230Z,54.17
2018-11-28T03:59:08.834Z,54.31
2018-11-28T03:59:40.445Z,54.31
2018-11-28T04:00:12.061Z,54.11
2018-11-28T04:00:43.675Z,54.17
2018-11-28T04:01:15.286Z,54.14
2018-11-28T04:01:46.883Z,54.11
2018-11-28T04:02:18.518Z,54.15
2018-11-28T04:02:50.129Z,54.19
2018-11-28T04:03:21.733Z,54.09
2018-11-28T04:03:53.349Z,54.13
2018-11-28T04:04:24.951Z,54.22
2018-11-28T04:04:56.557Z,53.96
2018-11-28T04:05:28.162Z,54.07
2018-11-28T04:05:59.772Z,53.97
2018-11-28T04:06:31.361Z,54.03
2018-11-28T04:07:02.958Z,54.12
2018-11-28T04:07:34.658Z,54.15
2018-11-28T04:08:06.264Z,54.20
2018-11-28T04:08:37.890Z,54.18
2018-11-28T04:09:09.492Z,54.11
2018-11-28T04:09:41.104Z,54.24
2018-11-28T04:10:12.717Z,54.12
2018-11-28T04:10:44.330Z,54.16
2018-11-28T04:11:15.936Z,54.22
2018-11-28T04:11:47.526Z,54.10
2018-11-28T04:12:19.160Z,54.10
2018-11-28T04:12:50.775Z,54.14
2018-11-28T04:13:22.370Z,54.21
2018-11-28T04:13:53.982Z,54.15
2018-11-28T04:14:25.617Z,54.03
2018-11-28T04:14:57.214Z,54.13
2018-11-28T04:15:28.806Z,54.07
2018-11-28T04:16:00.420Z,53.88
2018-11-28T04:16:32.015Z,53.94
2018-11-28T04:17:03.607Z,54.01
2018-11-28T04:17:35.235Z,54.12
2018-11-28T04:18:06.816Z,53.90
2018-11-28T04:18:38.428Z,53.92
2018-11-28T04:19:10.040Z,53.98
2018-11-28T04:19:41.624Z,53.85
2018-11-28T04:20:13.236Z,53.86
2018-11-28T04:20:44.821Z,53.79
2018-11-28T04:21:16.422Z,53.76
2018-11-28T04:21:48.004Z,53.72
2018-11-28T04:22:19.628Z,53.65
2018-11-28T04:22:51.223Z,53.37
2018-11-28T04:23:22.827Z,53.09
2018-11-28T04:23:54.436Z,52.88
2018-11-28T04:24:26.034Z,52.83
2018-11-28T04:24:57.630Z,52.37
2018-11-28T04:25:29.230Z,52.15
2018-11-28T04:26:00.829Z,51.83
2018-11-28T04:26:32.427Z,51.83
2018-11-28T04:27:04.044Z,51.61
2018-11-28T04:27:35.657Z,51.67
2018-11-28T04:28:07.273Z,51.71
2018-11-28T04:28:38.876Z,51.78
2018-11-28T04:29:10.537Z,51.85
2018-11-28T04:29:42.128Z,51.83
2018-11-28T04:30:13.730Z,51.85
2018-11-28T04:30:45.335Z,52.11
2018-11-28T04:31:16.935Z,52.12
2018-11-28T04:31:48.535Z,52.08
2018-11-28T04:32:20.149Z,52.18
2018-11-28T04:32:51.750Z,52.15
2018-11-28T04:33:23.345Z,52.11
2018-11-28T04:33:54.952Z,52.19
2018-11-28T04:34:26.547Z,52.25
2018-11-28T04:34:58.132Z,52.25
2018-11-28T04:35:29.729Z,52.33
2018-11-28T04:36:01.324Z,52.35
2018-11-28T04:36:32.918Z,52.36
2018-11-28T04:37:04.504Z,52.33
2018-11-28T04:37:36.126Z,52.37
2018-11-28T04:38:07.742Z,52.42
2018-11-28T04:38:39.346Z,52.45
2018-11-28T04:39:10.952Z,52.52
2018-11-28T04:39:42.546Z,52.62
2018-11-28T04:40:14.142Z,52.72
2018-11-28T04:40:45.738Z,52.73
2018-11-28T04:41:17.324Z,52.70
2018-11-28T04:41:48.935Z,52.71
2018-11-28T04:42:20.530Z,52.76
2018-11-28T04:42:52.372Z,52.86
2018-11-28T04:43:23.990Z,52.86
2018-11-28T04:43:55.591Z,52.86
2018-11-28T04:44:27.186Z,52.87
2018-11-28T04:44:58.796Z,52.92
2018-11-28T04:45:30.406Z,52.87
2018-11-28T04:46:02.015Z,52.93
2018-11-28T04:46:33.631Z,52.94
2018-11-28T04:47:05.249Z,52.93
2018-11-28T04:47:36.886Z,53.09
2018-11-28T04:48:08.469Z,53.07
2018-11-28T04:48:40.076Z,53.08
2018-11-28T04:49:11.683Z,53.03
2018-11-28T04:49:43.292Z,53.05
2018-11-28T04:50:14.908Z,53.06
2018-11-28T04:50:46.520Z,52.97
2018-11-28T04:51:18.137Z,52.97
2018-11-28T04:51:49.738Z,52.95
2018-11-28T04:52:21.334Z,53.11
2018-11-28T04:52:52.920Z,53.10
2018-11-28T04:53:24.529Z,53.19
2018-11-28T04:53:56.117Z,53.15
2018-11-28T04:54:27.720Z,53.18
2018-11-28T04:54:59.314Z,53.21
2018-11-28T04:55:30.915Z,53.18
2018-11-28T04:56:02.511Z,53.34
2018-11-28T04:56:34.110Z,53.36
2018-11-28T04:57:05.702Z,53.34
2018-11-28T04:57:37.312Z,53.39
2018-11-28T04:58:08.910Z,53.39
2018-11-28T04:58:40.496Z,53.39
2018-11-28T04:59:12.086Z,53.35
2018-11-28T04:59:43.688Z,53.59
2018-11-28T05:00:15.300Z,53.63
2018-11-28T05:00:46.898Z,53.64
2018-11-28T05:01:18.501Z,53.54
2018-11-28T05:01:50.108Z,53.71
2018-11-28T05:02:21.706Z,53.61
2018-11-28T05:02:53.317Z,53.52
2018-11-28T05:03:24.918Z,53.59
2018-11-28T05:03:56.521Z,53.53
2018-11-28T05:04:28.118Z,53.52
2018-11-28T05:04:59.720Z,53.52
2018-11-28T05:05:31.318Z,53.52
2018-11-28T05:06:02.901Z,53.67
2018-11-28T05:06:34.508Z,53.65
2018-11-28T05:07:06.125Z,53.71
2018-11-28T05:07:37.793Z,53.59
2018-11-28T05:08:09.408Z,53.49
2018-11-28T05:08:41.002Z,53.50
2018-11-28T05:09:12.616Z,53.68
2018-11-28T05:09:44.215Z,53.68
2018-11-28T05:10:15.803Z,53.61
2018-11-28T05:10:47.416Z,53.65
2018-11-28T05:11:19.032Z,53.71
2018-11-28T05:11:50.630Z,53.65
2018-11-28T05:12:22.222Z,53.58
2018-11-28T05:12:53.813Z,53.64
2018-11-28T05:13:35.652Z,53.65
2018-11-28T05:14:07.735Z,53.80
2018-11-28T05:14:39.469Z,53.82
2018-11-28T05:15:11.089Z,53.73
2018-11-28T05:15:42.690Z,53.83
2018-11-28T05:16:14.289Z,53.81
2018-11-28T05:16:45.891Z,53.90
2018-11-28T05:17:17.533Z,53.81
2018-11-28T05:17:49.135Z,53.86
2018-11-28T05:18:20.724Z,53.94
2018-11-28T05:18:52.314Z,54.03
2018-11-28T05:19:23.919Z,53.95
2018-11-28T05:19:55.528Z,54.00
2018-11-28T05:20:27.129Z,53.87
2018-11-28T05:20:58.722Z,53.81
2018-11-28T05:21:30.326Z,53.97
2018-11-28T05:22:01.936Z,54.17
2018-11-28T05:22:33.549Z,53.94
2018-11-28T05:23:05.184Z,53.92
2018-11-28T05:23:36.778Z,53.84
2018-11-28T05:24:08.395Z,54.13
2018-11-28T05:24:39.981Z,54.04
2018-11-28T05:25:11.574Z,54.02
2018-11-28T05:25:43.157Z,53.92
2018-11-28T05:26:18.910Z,53.75
2018-11-28T05:26:50.532Z,53.99
2018-11-28T05:27:22.130Z,53.92
2018-11-28T05:27:53.760Z,53.81
2018-11-28T05:28:25.510Z,53.88
2018-11-28T05:28:57.400Z,53.86
2018-11-28T05:29:29.148Z,53.90
2018-11-28T05:30:01.673Z,53.97
2018-11-28T05:30:33.273Z,53.95
2018-11-28T05:31:04.893Z,54.02
2018-11-28T05:31:36.500Z,54.06
2018-11-28T05:32:08.087Z,53.94
2018-11-28T05:32:39.692Z,54.03
2018-11-28T05:33:11.328Z,54.02
2018-11-28T05:33:42.926Z,53.94
2018-11-28T05:34:14.535Z,54.02
2018-11-28T05:34:46.130Z,53.90
2018-11-28T05:35:18.433Z,53.85
2018-11-28T05:35:50.042Z,53.95
2018-11-28T05:36:21.638Z,54.01
2018-11-28T05:36:53.233Z,53.90
2018-11-28T05:37:24.834Z,53.90
2018-11-28T05:37:56.427Z,53.92
2018-11-28T05:38:28.060Z,54.00
2018-11-28T05:38:59.664Z,54.05
2018-11-28T05:39:31.284Z,53.96
2018-11-28T05:40:02.899Z,53.89
2018-11-28T05:40:34.552Z,53.89
2018-11-28T05:41:06.120Z,53.96
2018-11-28T05:41:37.728Z,53.98
2018-11-28T05:42:09.350Z,53.95
2018-11-28T05:42:40.940Z,53.91
2018-11-28T05:43:12.588Z,53.94
2018-11-28T05:43:44.184Z,53.99
2018-11-28T05:44:15.788Z,54.01
2018-11-28T05:44:47.386Z,54.01
2018-11-28T05:45:18.992Z,54.07
2018-11-28T05:45:50.591Z,54.10
2018-11-28T05:46:22.197Z,54.16
2018-11-28T05:46:53.776Z,54.18
2018-11-28T05:47:25.370Z,54.21
2018-11-28T05:47:56.980Z,54.22
2018-11-28T05:48:28.602Z,54.23
2018-11-28T05:49:00.204Z,54.35
2018-11-28T05:49:31.798Z,54.35
2018-11-28T05:50:03.423Z,54.30
2018-11-28T05:50:35.017Z,54.28
2018-11-28T05:51:06.610Z,54.27
2018-11-28T05:51:38.197Z,54.33
2018-11-28T05:52:09.810Z,54.31
2018-11-28T05:52:41.412Z,54.32
2018-11-28T05:53:13.038Z,54.33
2018-11-28T05:53:44.635Z,54.33
2018-11-28T05:54:16.218Z,54.30
2018-11-28T05:54:47.832Z,54.22
2018-11-28T05:55:19.445Z,54.25
2018-11-28T05:55:51.056Z,54.30
2018-11-28T05:56:22.656Z,54.19
2018-11-28T05:56:54.322Z,54.19
2018-11-28T05:57:25.929Z,54.17
2018-11-28T05:57:57.540Z,54.12
2018-11-28T05:58:29.162Z,54.06
2018-11-28T05:59:00.753Z,54.04
2018-11-28T05:59:32.364Z,54.11
2018-11-28T06:00:04.919Z,54.07
2018-11-28T06:00:35.656Z,54.02
2018-11-28T06:01:07.254Z,54.13
2018-11-28T06:01:38.866Z,54.05
2018-11-28T06:02:10.465Z,54.00
2018-11-28T06:02:42.052Z,53.98
2018-11-28T06:03:13.690Z,53.88
2018-11-28T06:03:45.322Z,53.81
2018-11-28T06:04:16.926Z,53.83
2018-11-28T06:04:48.524Z,53.77
2018-11-28T06:05:20.125Z,53.87
2018-11-28T06:05:51.726Z,53.74
2018-11-28T06:06:23.336Z,53.65
2018-11-28T06:06:54.934Z,53.66
2018-11-28T06:07:26.534Z,53.68
2018-11-28T06:07:58.130Z,53.71
2018-11-28T06:08:29.755Z,53.67
2018-11-28T06:09:01.370Z,53.71
2018-11-28T06:09:32.988Z,53.63
2018-11-28T06:10:04.603Z,53.66
2018-11-28T06:10:36.203Z,53.59
2018-11-28T06:11:07.807Z,53.60
2018-11-28T06:11:39.422Z,53.44
2018-11-28T06:12:11.034Z,53.42
2018-11-28T06:12:43.778Z,53.37
2018-11-28T06:13:14.265Z,53.48
2018-11-28T06:13:45.907Z,53.45
2018-11-28T06:14:17.497Z,53.56
2018-11-28T06:14:49.082Z,53.71
2018-11-28T06:15:20.693Z,53.60
2018-11-28T06:15:52.300Z,53.54
2018-11-28T06:16:23.893Z,53.65
2018-11-28T06:16:55.512Z,53.64
2018-11-28T06:17:27.119Z,53.75
2018-11-28T06:17:58.732Z,53.72
2018-11-28T06:18:30.354Z,53.81
2018-11-28T06:19:01.963Z,53.96
2018-11-28T06:19:33.571Z,53.95
2018-11-28T06:20:05.166Z,53.84
2018-11-28T06:20:36.770Z,53.96
2018-11-28T06:21:08.380Z,53.98
2018-11-28T06:21:39.975Z,53.95
2018-11-28T06:22:11.570Z,53.81
2018-11-28T06:22:43.183Z,53.89
2018-11-28T06:23:14.792Z,53.97
2018-11-28T06:23:46.431Z,54.06
2018-11-28T06:24:18.013Z,54.00
2018-11-28T06:24:49.678Z,53.97
2018-11-28T06:25:21.282Z,53.99
2018-11-28T06:25:52.949Z,53.99
2018-11-28T06:26:24.562Z,54.01
2018-11-28T06:26:56.157Z,53.90
2018-11-28T06:27:27.749Z,53.88
2018-11-28T06:27:59.368Z,54.06
2018-11-28T06:28:30.990Z,54.08
2018-11-28T06:29:02.716Z,54.16
2018-11-28T06:29:34.304Z,54.08
2018-11-28T06:30:05.905Z,53.99
2018-11-28T06:30:37.499Z,54.15
2018-11-28T06:31:09.111Z,54.29
2018-11-28T06:31:40.708Z,54.23
2018-11-28T06:32:12.306Z,54.39
2018-11-28T06:32:43.913Z,54.31
2018-11-28T06:33:15.512Z,54.20
2018-11-28T06:33:47.151Z,54.41
2018-11-28T06:34:18.764Z,54.39
2018-11-28T06:34:50.362Z,54.56
2018-11-28T06:35:21.963Z,54.54
2018-11-28T06:35:53.548Z,54.61
2018-11-28T06:36:25.132Z,54.72
2018-11-28T06:36:56.740Z,54.70
2018-11-28T06:37:28.344Z,54.83
2018-11-28T06:37:59.955Z,54.87
2018-11-28T06:38:31.582Z,54.88
2018-11-28T06:39:03.182Z,54.76
2018-11-28T06:39:34.760Z,54.75
2018-11-28T06:40:06.357Z,54.75
2018-11-28T06:40:37.950Z,54.78
2018-11-28T06:41:09.551Z,54.70
2018-11-28T06:41:41.146Z,54.86
2018-11-28T06:42:12.738Z,54.80
2018-11-28T06:42:44.324Z,54.82
2018-11-28T06:43:15.931Z,54.75
2018-11-28T06:43:47.668Z,54.71
2018-11-28T06:44:19.282Z,54.79
2018-11-28T06:44:50.872Z,54.75
2018-11-28T06:45:22.485Z,54.85
2018-11-28T06:45:54.078Z,54.74
2018-11-28T06:46:25.677Z,54.82
2018-11-28T06:46:57.275Z,54.87
2018-11-28T06:47:29.088Z,55.03